createdAt,value
2023-05-25T00:01:59.233Z,7.00
2023-05-25T00:07:03.052Z,8.90
2023-05-25T00:12:06.612Z,8.30
2023-05-25T00:17:10.169Z,7.90
2023-05-25T00:22:13.295Z,8.20
2023-05-25T00:27:16.136Z,8.10
2023-05-25T00:32:19.150Z,7.70
2023-05-25T00:37:22.039Z,8.10
2023-05-25T00:42:24.921Z,8.00
2023-05-25T00:47:27.833Z,8.40
2023-05-25T00:52:30.732Z,7.60
2023-05-25T00:57:34.426Z,7.70
2023-05-25T01:02:41.266Z,8.80
2023-05-25T01:07:46.175Z,9.10
2023-05-25T01:12:53.538Z,6.70
2023-05-25T01:17:59.406Z,8.30
2023-05-25T01:23:14.085Z,8.70
2023-05-25T01:28:28.357Z,8.20
2023-05-25T01:33:32.598Z,7.30
2023-05-25T01:38:35.810Z,8.20
2023-05-25T01:43:40.717Z,8.20
2023-05-25T01:48:51.123Z,8.10
2023-05-25T01:54:00.462Z,7.60
2023-05-25T01:59:07.712Z,8.30
2023-05-25T02:04:11.243Z,8.60
2023-05-25T02:09:14.047Z,8.60
2023-05-25T02:14:17.432Z,7.80
2023-05-25T02:19:20.279Z,9.10
2023-05-25T02:24:25.058Z,8.40
2023-05-25T02:29:27.779Z,9.20
2023-05-25T02:34:30.786Z,9.50
2023-05-25T02:39:33.525Z,9.30
2023-05-25T02:44:36.290Z,9.20
2023-05-25T02:49:38.996Z,9.10
2023-05-25T02:54:42.083Z,9.30
2023-05-25T02:59:44.860Z,9.60
2023-05-25T03:04:49.991Z,9.40
2023-05-25T03:09:53.038Z,8.90
2023-05-25T03:14:55.875Z,9.00
2023-05-25T03:19:58.605Z,7.60
2023-05-25T03:25:01.325Z,9.00
2023-05-25T03:30:05.120Z,9.20
2023-05-25T03:35:08.356Z,8.70
2023-05-25T03:40:11.907Z,8.20
2023-05-25T03:45:14.759Z,8.50
2023-05-25T03:50:17.494Z,8.10
2023-05-25T03:55:20.273Z,8.40
2023-05-25T04:00:23.413Z,8.90
2023-05-25T04:05:26.721Z,9.20
2023-05-25T04:10:29.475Z,10.20
2023-05-25T04:15:34.664Z,8.20
2023-05-25T04:20:37.449Z,8.60
2023-05-25T04:25:42.374Z,8.30
2023-05-25T04:30:45.433Z,8.90
2023-05-25T04:35:50.634Z,8.70
2023-05-25T04:40:54.174Z,8.80
2023-05-25T04:45:58.112Z,9.10
2023-05-25T04:51:04.667Z,8.70
2023-05-25T04:56:07.642Z,8.90
2023-05-25T05:01:10.374Z,8.20
2023-05-25T05:06:13.197Z,7.40
2023-05-25T05:11:16.037Z,7.70
2023-05-25T05:16:18.783Z,8.10
2023-05-25T05:21:23.349Z,8.30
2023-05-25T05:26:27.984Z,7.40
2023-05-25T05:31:31.774Z,7.90
2023-05-25T05:36:45.151Z,7.90
2023-05-25T05:41:51.824Z,7.60
2023-05-25T05:47:00.477Z,6.60
2023-05-25T05:52:04.310Z,7.10
2023-05-25T05:57:07.248Z,7.90
2023-05-25T06:02:10.232Z,7.60
2023-05-25T06:07:13.128Z,7.40
2023-05-25T06:12:16.243Z,6.80
2023-05-25T06:17:19.449Z,6.50
2023-05-25T06:22:24.027Z,6.70
2023-05-25T06:27:26.877Z,6.80
2023-05-25T06:32:29.626Z,6.70
2023-05-25T06:37:38.626Z,5.90
2023-05-25T06:42:41.796Z,7.20
2023-05-25T06:47:44.577Z,6.40
2023-05-25T06:52:47.467Z,6.50
2023-05-25T06:57:50.502Z,6.70
2023-05-25T07:02:53.377Z,6.30
2023-05-25T07:07:56.269Z,6.70
2023-05-25T07:12:59.012Z,7.20
2023-05-25T07:18:02.370Z,6.30
2023-05-25T07:23:05.147Z,7.40
2023-05-25T07:28:08.820Z,6.20
2023-05-25T07:33:11.534Z,6.60
2023-05-25T07:38:14.283Z,6.30
2023-05-25T07:43:17.106Z,6.70
2023-05-25T07:48:20.014Z,6.50
2023-05-25T07:53:22.841Z,5.40
2023-05-25T07:58:25.620Z,5.80
2023-05-25T08:03:39.569Z,6.80
2023-05-25T08:08:50.596Z,6.80
2023-05-25T08:13:53.696Z,6.00
2023-05-25T08:18:57.410Z,6.10
2023-05-25T08:24:04.195Z,6.30
2023-05-25T08:29:07.527Z,6.60
2023-05-25T08:34:10.755Z,7.10
2023-05-25T08:39:17.229Z,5.60
2023-05-25T08:44:21.630Z,6.40
2023-05-25T08:49:26.112Z,5.40
2023-05-25T08:54:36.799Z,5.60
2023-05-25T08:59:57.062Z,6.60
2023-05-25T09:05:01.877Z,6.40
2023-05-25T09:10:06.128Z,5.60
2023-05-25T09:15:12.931Z,5.20
2023-05-25T09:20:18.780Z,6.00
2023-05-25T09:25:23.071Z,5.80
2023-05-25T09:30:27.821Z,5.30
2023-05-25T09:35:30.873Z,6.20
2023-05-25T09:40:34.891Z,5.60
2023-05-25T09:45:38.522Z,8.20
2023-05-25T09:50:42.002Z,6.60
2023-05-25T09:55:53.950Z,5.60
2023-05-25T10:00:57.379Z,6.50
2023-05-25T10:06:01.293Z,6.50
2023-05-25T10:11:05.927Z,5.70
2023-05-25T10:16:17.478Z,6.10
2023-05-25T10:21:22.680Z,6.30
2023-05-25T10:26:29.037Z,5.40
2023-05-25T10:31:35.226Z,5.10
2023-05-25T10:36:38.390Z,4.80
2023-05-25T10:41:42.422Z,4.70
2023-05-25T10:46:45.984Z,4.60
2023-05-25T10:51:58.662Z,5.40
2023-05-25T10:57:21.901Z,4.90
2023-05-25T11:02:28.217Z,6.80
2023-05-25T11:07:30.974Z,5.50
2023-05-25T11:12:33.704Z,6.30
2023-05-25T11:17:46.122Z,5.30
2023-05-25T11:22:52.384Z,5.80
2023-05-25T11:28:03.513Z,5.20
2023-05-25T11:33:08.001Z,5.80
2023-05-25T11:38:11.353Z,5.80
2023-05-25T11:43:14.781Z,5.90
2023-05-25T11:48:17.714Z,5.80
2023-05-25T11:53:20.568Z,5.60
2023-05-25T11:58:23.344Z,4.70
2023-05-25T12:03:32.789Z,5.40
2023-05-25T12:08:38.262Z,4.20
2023-05-25T12:18:44.207Z,4.80
2023-05-25T12:23:47.867Z,4.60
2023-05-25T12:29:01.790Z,4.90
2023-05-25T12:34:18.310Z,4.50
2023-05-25T12:39:29.979Z,4.60
2023-05-25T12:44:37.408Z,5.10
2023-05-25T12:49:42.576Z,5.10
2023-05-25T12:54:46.645Z,4.70
2023-05-25T12:59:56.491Z,6.10
2023-05-25T13:04:59.298Z,5.90
2023-05-25T13:10:02.059Z,5.20
2023-05-25T13:15:07.397Z,5.90
2023-05-25T13:25:17.337Z,5.70
2023-05-25T13:30:23.221Z,5.40
2023-05-25T13:35:42.261Z,5.60
2023-05-25T13:40:45.609Z,7.10
2023-05-25T13:45:48.670Z,6.00
2023-05-25T13:50:51.538Z,6.10
2023-05-25T13:55:54.479Z,6.20
2023-05-25T14:00:57.241Z,5.50
2023-05-25T14:06:00.170Z,5.10
2023-05-25T14:11:03.356Z,5.40
2023-05-25T14:16:06.322Z,5.60
2023-05-25T14:21:11.038Z,5.90
2023-05-25T14:26:13.780Z,7.00
2023-05-25T14:31:16.655Z,6.40
2023-05-25T14:36:19.582Z,5.50
2023-05-25T14:41:22.787Z,5.70
2023-05-25T14:46:25.558Z,6.20
2023-05-25T14:51:28.634Z,5.70
2023-05-25T14:56:31.373Z,5.70
2023-05-25T15:01:34.649Z,5.40
2023-05-25T15:06:39.380Z,6.10
2023-05-25T15:11:42.194Z,5.90
2023-05-25T15:16:45.132Z,4.70
2023-05-25T15:21:47.982Z,4.50
2023-05-25T15:26:50.726Z,4.10
2023-05-25T15:31:56.161Z,4.20
2023-05-25T15:37:00.202Z,4.20
2023-05-25T15:42:02.934Z,3.90
2023-05-25T15:47:06.747Z,4.30
2023-05-25T15:52:09.525Z,4.00
2023-05-25T15:57:12.280Z,3.80
2023-05-25T16:02:15.225Z,4.20
2023-05-25T16:07:18.247Z,3.70
2023-05-25T16:12:24.214Z,3.50
2023-05-25T16:17:28.752Z,3.50
2023-05-25T16:22:32.617Z,3.50
2023-05-25T16:27:35.540Z,3.60
2023-05-25T16:32:38.669Z,3.60
2023-05-25T16:37:41.576Z,3.70
2023-05-25T16:42:44.524Z,3.70
2023-05-25T16:47:47.447Z,3.10
2023-05-25T16:52:50.299Z,3.20
2023-05-25T16:57:53.056Z,3.00
2023-05-25T17:02:56.093Z,3.20
2023-05-25T17:07:59.234Z,3.30
2023-05-25T17:13:02.222Z,3.30
2023-05-25T17:18:05.158Z,3.20
2023-05-25T17:23:08.138Z,3.40
2023-05-25T17:28:10.909Z,2.90
2023-05-25T17:33:13.814Z,3.40
2023-05-25T17:38:16.970Z,3.30
2023-05-25T17:43:19.688Z,3.60
2023-05-25T17:48:22.502Z,3.40
2023-05-25T17:53:25.784Z,3.40
2023-05-25T17:58:28.569Z,4.00
2023-05-25T18:03:31.630Z,3.10
2023-05-25T18:08:34.668Z,3.60
2023-05-25T18:13:37.448Z,3.50
2023-05-25T18:18:40.539Z,3.10
2023-05-25T18:23:43.303Z,3.80
2023-05-25T18:28:46.105Z,3.30
2023-05-25T18:33:49.048Z,3.00
2023-05-25T18:38:51.900Z,3.40
2023-05-25T18:43:55.089Z,3.50
2023-05-25T18:48:57.891Z,3.40
2023-05-25T18:54:00.720Z,3.90
2023-05-25T18:59:03.501Z,3.70
2023-05-25T19:04:06.651Z,4.60
2023-05-25T19:09:09.691Z,3.80
2023-05-25T19:14:12.480Z,3.30
2023-05-25T19:19:15.244Z,3.90
2023-05-25T19:24:20.695Z,3.10
2023-05-25T19:29:24.279Z,3.30
2023-05-25T19:34:27.069Z,3.40
2023-05-25T19:39:31.728Z,3.30
2023-05-25T19:44:34.497Z,3.60
2023-05-25T19:49:37.225Z,3.00
2023-05-25T19:54:40.006Z,3.00
2023-05-25T19:59:43.504Z,2.90
2023-05-25T20:04:46.864Z,3.10
2023-05-25T20:09:50.106Z,2.90
2023-05-25T20:14:54.627Z,3.10
2023-05-25T20:19:59.712Z,2.90
2023-05-25T20:25:02.449Z,3.00
2023-05-25T20:30:06.654Z,2.90
2023-05-25T20:35:09.522Z,2.90
2023-05-25T20:40:13.244Z,3.20
2023-05-25T20:45:16.024Z,3.20
2023-05-25T20:50:18.823Z,3.20
2023-05-25T20:55:21.929Z,3.20
2023-05-25T21:00:24.763Z,2.70
2023-05-25T21:05:27.502Z,3.10
2023-05-25T21:10:30.647Z,3.50
2023-05-25T21:15:33.576Z,3.00
2023-05-25T21:20:36.720Z,4.30
2023-05-25T21:25:39.560Z,3.30
2023-05-25T21:30:42.273Z,3.60
2023-05-25T21:35:45.149Z,2.90
2023-05-25T21:40:48.012Z,3.00
2023-05-25T21:45:51.377Z,3.30
2023-05-25T21:50:54.408Z,3.40
2023-05-25T21:55:57.188Z,3.40
2023-05-25T22:01:00.020Z,3.60
2023-05-25T22:06:02.839Z,2.90
2023-05-25T22:11:05.724Z,3.20
2023-05-25T22:16:08.462Z,3.40
2023-05-25T22:21:11.271Z,3.00
2023-05-25T22:26:14.047Z,3.40
2023-05-25T22:31:17.097Z,3.70
2023-05-25T22:36:19.955Z,4.60
2023-05-25T22:41:23.028Z,4.30
2023-05-25T22:46:26.153Z,4.20
2023-05-25T22:51:29.025Z,4.20
2023-05-25T22:56:31.785Z,5.10
2023-05-25T23:01:34.653Z,4.40
2023-05-25T23:06:37.573Z,4.10
2023-05-25T23:11:40.579Z,4.10
2023-05-25T23:16:44.574Z,4.20
2023-05-25T23:21:48.519Z,3.80
2023-05-25T23:26:51.249Z,4.70
2023-05-25T23:31:54.086Z,5.00
2023-05-25T23:36:58.374Z,8.00
2023-05-25T23:42:02.356Z,6.10
2023-05-25T23:47:05.849Z,6.60
2023-05-25T23:52:08.702Z,6.70
2023-05-25T23:57:11.597Z,6.40
